Time;durP1;ratioP1;P1;durP2;ratioP2;P2;SDS_P1;SDS_P2;PMS_P1;PMS_P2;Temp;Humidity;BMP_temperature;BMP_pressure;BME280_temperature;BME280_humidity;BME280_pressure;Samples;Min_cycle;Max_cycle;Signal;HPM_P1;HPM_P2
2023/09/01 00:02:04;;;;;;;10.87;4.00;;;;;;;15.57;100.00;144942.38;6211745;23;20005;-74
2023/09/01 00:04:30;;;;;;;8.87;3.73;;;;;;;15.54;100.00;148010.38;6185070;23;20005;-73
2023/09/01 00:06:55;;;;;;;10.37;3.97;;;;;;;15.56;100.00;147653.78;6186556;23;20339;-74
2023/09/01 00:09:20;;;;;;;14.13;4.97;;;;;;;15.50;100.00;149432.22;6186396;23;20092;-74
2023/09/01 00:11:46;;;;;;;13.50;4.10;;;;;;;15.45;100.00;144557.34;6213397;23;20172;-74
2023/09/01 00:14:11;;;;;;;15.37;4.40;;;;;;;15.46;100.00;143131.31;6213601;23;20011;-74
2023/09/01 00:16:36;;;;;;;10.27;4.20;;;;;;;15.50;100.00;143140.88;6187216;23;20385;-74
2023/09/01 00:19:02;;;;;;;8.00;4.13;;;;;;;15.44;100.00;143126.53;6186495;23;20365;-74
2023/09/01 00:21:27;;;;;;;15.07;4.20;;;;;;;15.48;100.00;141350.00;6214048;23;20004;-74
2023/09/01 00:23:53;;;;;;;12.13;4.70;;;;;;;15.44;100.00;137774.44;6186702;23;20423;-74
2023/09/01 00:26:18;;;;;;;12.23;4.13;;;;;;;15.43;100.00;133494.38;6214321;23;20008;-74
2023/09/01 00:28:43;;;;;;;16.37;4.73;;;;;;;15.40;100.00;129215.75;6186325;23;20008;-74
2023/09/01 00:31:09;;;;;;;12.97;4.60;;;;;;;15.38;100.00;127432.84;6213480;23;20077;-74
2023/09/01 00:33:34;;;;;;;18.13;4.30;;;;;;;15.31;100.00;125285.84;6214093;23;20011;-74
2023/09/01 00:36:00;;;;;;;12.87;4.67;;;;;;;15.34;100.00;122803.84;6186910;23;20008;-74
2023/09/01 00:38:26;;;;;;;19.03;4.87;;;;;;;15.27;100.00;119594.09;6212734;23;20005;-74
2023/09/01 00:40:52;;;;;;;12.10;4.30;;;;;;;15.20;100.00;116033.97;6213341;23;20004;-74
2023/09/01 00:43:17;;;;;;;11.63;4.30;;;;;;;15.19;100.00;112488.09;6213039;23;20008;-74
2023/09/01 00:45:43;;;;;;;13.93;4.33;;;;;;;15.19;100.00;109655.16;6213710;23;20039;-74
2023/09/01 00:48:11;;;;;;;13.57;5.10;;;;;;;15.17;100.00;103990.84;6212935;23;20004;-74
2023/09/01 00:50:37;;;;;;;14.30;4.65;;;;;;;15.25;100.00;101884.09;6213952;23;20004;-74
2023/09/01 00:53:06;;;;;;;19.27;4.90;;;;;;;15.21;100.00;104704.88;6213160;23;20474;-74
2023/09/01 00:55:33;;;;;;;12.88;4.82;;;;;;;15.19;100.00;102933.94;6214020;23;20019;-74
2023/09/01 00:58:00;;;;;;;16.52;4.97;;;;;;;15.23;100.00;101528.22;6213490;23;20498;-74
2023/09/01 01:00:25;;;;;;;;;;;;;;;15.24;100.00;98703.53;6186525;23;20395;-74
2023/09/01 01:02:50;;;;;;;14.05;4.75;;;;;;;15.21;100.00;101877.28;6213508;23;19931;-74
2023/09/01 01:05:23;;;;;;;22.40;5.27;;;;;;;15.28;100.00;101535.88;6213474;23;20076;-75
2023/09/01 01:08:10;;;;;;;15.18;4.78;;;;;;;15.28;100.00;103656.44;6186528;23;20477;-73
2023/09/01 01:10:49;;;;;;;17.35;7.05;;;;;;;15.32;100.00;102956.34;6214041;23;20005;-74
2023/09/01 01:13:18;;;;;;;12.20;4.88;;;;;;;15.31;100.00;105783.44;6212349;23;20319;-74
2023/09/01 01:15:43;;;;;;;13.48;5.45;;;;;;;15.36;100.00;108977.38;6212782;23;20615;-74
2023/09/01 01:18:13;;;;;;;15.83;5.67;;;;;;;15.39;100.00;111107.66;6212886;23;20004;-74
2023/09/01 01:20:44;;;;;;;15.95;6.03;;;;;;;15.32;100.00;110033.09;6186895;23;20051;-74
2023/09/01 01:23:11;;;;;;;9.43;5.63;;;;;;;15.29;100.00;107548.84;6212263;23;20073;-74
2023/09/01 01:25:44;;;;;;;15.38;5.57;;;;;;;15.29;100.00;104366.16;6213602;23;20482;-74
2023/09/01 01:28:09;;;;;;;13.82;5.78;;;;;;;15.25;100.00;101884.09;6212857;23;20005;-74
2023/09/01 01:30:36;;;;;;;14.87;5.63;;;;;;;15.30;100.00;101893.47;6185542;23;20058;-74
2023/09/01 01:33:02;;;;;;;13.93;5.28;;;;;;;15.29;100.00;103659.03;6212901;23;20000;-74
2023/09/01 01:35:40;;;;;;;15.73;5.25;;;;;;;15.31;100.00;103308.97;6213928;23;20007;-73
2023/09/01 01:38:05;;;;;;;18.55;4.82;;;;;;;15.32;100.00;101543.50;6213020;23;20091;-74
2023/09/01 01:40:32;;;;;;;12.67;5.40;;;;;;;15.23;100.00;99762.06;6213843;23;20071;-72
2023/09/01 01:43:01;;;;;;;;;;;;;;;15.19;100.00;98342.25;6212927;23;20001;-72
2023/09/01 01:45:29;;;;;;;11.80;4.65;;;;;;;15.16;100.00;95161.66;6212833;23;19918;-72
2023/09/01 01:47:54;;;;;;;18.58;5.10;;;;;;;15.17;100.00;92342.50;6212352;23;20009;-73
2023/09/01 01:50:20;;;;;;;13.10;6.40;;;;;;;15.22;100.00;91645.28;6212647;23;20011;-73
2023/09/01 01:52:45;;;;;;;15.17;5.63;;;;;;;15.24;100.00;88126.13;6213008;23;20461;-72
2023/09/01 01:55:11;;;;;;;15.10;5.80;;;;;;;15.24;100.00;89887.25;6212554;23;20000;-73
2023/09/01 01:57:39;;;;;;;14.23;6.07;;;;;;;15.19;100.00;88470.13;6186382;23;20092;-72
2023/09/01 02:00:11;;;;;;;15.68;6.25;;;;;;;15.18;100.00;84597.69;6212602;23;20027;-73
2023/09/01 02:02:38;;;;;;;15.00;6.00;;;;;;;15.15;100.00;81780.09;6213789;23;19996;-72
2023/09/01 02:05:08;;;;;;;11.00;6.07;;;;;;;15.19;100.00;80027.47;6213087;23;20005;-72
2023/09/01 02:07:34;;;;;;;13.30;5.60;;;;;;;15.16;100.00;77564.50;6212428;23;20360;-72
2023/09/01 02:09:59;;;;;;;15.47;6.67;;;;;;;15.18;100.00;76162.59;6212512;23;19997;-72
2023/09/01 02:12:25;;;;;;;13.70;6.00;;;;;;;15.14;100.00;75455.44;6211893;23;20548;-72
2023/09/01 02:14:50;;;;;;;13.13;5.73;;;;;;;15.11;100.00;74399.53;6213009;23;20055;-72
2023/09/01 02:17:16;;;;;;;12.93;5.63;;;;;;;15.14;100.00;73350.13;6185721;23;20015;-72
2023/09/01 02:19:41;;;;;;;11.33;5.80;;;;;;;15.20;100.00;73007.34;6213021;23;20000;-72
2023/09/01 02:22:06;;;;;;;18.97;6.93;;;;;;;15.16;100.00;75458.00;6185504;23;20011;-73
2023/09/01 02:24:32;;;;;;;20.20;6.10;;;;;;;15.15;100.00;73000.59;6185589;23;20490;-72
2023/09/01 02:26:58;;;;;;;14.50;6.77;;;;;;;15.08;100.00;70888.78;6212505;23;20075;-72
2023/09/01 02:29:23;;;;;;;15.23;6.53;;;;;;;15.10;100.00;71241.16;6211974;23;20346;-74
2023/09/01 02:31:49;;;;;;;15.53;7.03;;;;;;;15.09;100.00;68436.88;6212944;23;20001;-72
2023/09/01 02:34:14;;;;;;;14.97;6.23;;;;;;;15.10;100.00;67036.91;6212459;23;20079;-72
2023/09/01 02:36:39;;;;;;;12.67;6.27;;;;;;;15.10;100.00;70189.53;6213002;23;20040;-72
2023/09/01 02:39:05;;;;;;;13.67;6.43;;;;;;;15.12;100.00;68439.75;6211412;23;20008;-73
2023/09/01 02:41:30;;;;;;;11.50;6.10;;;;;;;15.12;100.00;69490.94;6186146;23;20004;-72
2023/09/01 02:43:57;;;;;;;20.83;6.40;;;;;;;15.10;100.00;67736.84;6212295;23;20008;-72
2023/09/01 02:46:22;;;;;;;19.83;6.85;;;;;;;15.07;100.00;65983.06;6212019;23;20008;-74
2023/09/01 02:48:48;;;;;;;14.20;6.10;;;;;;;15.08;100.00;66334.28;6212038;23;20335;-74
2023/09/01 02:51:14;;;;;;;11.90;5.30;;;;;;;15.09;100.00;67035.19;6212849;23;20008;-74
2023/09/01 02:53:39;;;;;;;16.67;6.07;;;;;;;15.17;100.00;67744.81;6212678;23;20008;-75
2023/09/01 02:56:05;;;;;;;13.00;5.63;;;;;;;15.16;100.00;68795.31;6212442;23;20382;-73
2023/09/01 02:58:31;;;;;;;13.37;6.00;;;;;;;15.14;100.00;72297.91;6211664;23;20004;-74
2023/09/01 03:00:56;;;;;;;8.35;5.20;;;;;;;15.17;100.00;70899.53;6212054;23;20099;-74
2023/09/01 03:03:23;;;;;;;14.77;6.70;;;;;;;15.16;100.00;68794.75;6211906;23;20028;-75
2023/09/01 03:05:49;;;;;;;10.73;4.97;;;;;;;15.16;100.00;66342.66;6212558;23;20083;-74
2023/09/01 03:08:17;;;;;;;14.95;6.03;;;;;;;15.13;100.00;66339.31;6211942;23;20005;-74
2023/09/01 03:10:43;;;;;;;9.25;5.20;;;;;;;15.16;100.00;65642.34;6212519;23;19998;-74
2023/09/01 03:13:08;;;;;;;13.23;5.53;;;;;;;15.14;100.00;65290.59;6211510;23;20012;-73
2023/09/01 03:15:34;;;;;;;11.23;6.40;;;;;;;15.18;100.00;66345.47;6212183;23;20108;-74
2023/09/01 03:17:59;;;;;;;13.53;6.07;;;;;;;15.12;100.00;65638.50;6211683;23;20324;-74
2023/09/01 03:20:24;;;;;;;16.53;6.00;;;;;;;15.11;100.00;63536.78;6212539;23;20504;-74
2023/09/01 03:22:50;;;;;;;16.10;6.30;;;;;;;15.14;100.00;65990.25;6184892;23;20020;-74
2023/09/01 03:25:17;;;;;;;12.53;5.43;;;;;;;15.11;100.00;65286.75;6211575;23;20004;-74
2023/09/01 03:27:43;;;;;;;14.15;5.93;;;;;;;15.06;100.00;64581.22;6212603;23;20118;-74
2023/09/01 03:30:09;;;;;;;13.10;5.70;;;;;;;15.06;100.00;63531.44;6211883;23;20072;-75
2023/09/01 03:32:34;;;;;;;15.05;5.90;;;;;;;15.03;100.00;62828.53;6212169;23;20004;-74
2023/09/01 03:35:00;;;;;;;14.13;5.93;;;;;;;14.99;100.00;61075.78;6211701;23;20090;-75
2023/09/01 03:37:25;;;;;;;13.77;5.43;;;;;;;14.94;100.00;59323.50;6196818;23;20409;-74
2023/09/01 03:39:51;;;;;;;9.47;4.77;;;;;;;14.92;100.00;56876.19;6212523;23;20003;-74
2023/09/01 03:42:17;;;;;;;11.05;4.95;;;;;;;14.91;100.00;55478.13;6210051;23;20431;-74
2023/09/01 03:44:42;;;;;;;14.03;5.77;;;;;;;14.96;100.00;52342.41;6212345;23;20004;-74
2023/09/01 03:47:09;;;;;;;13.80;5.80;;;;;;;14.97;100.00;52692.16;6213059;23;20054;-74
2023/09/01 03:49:34;;;;;;;9.32;5.32;;;;;;;14.99;100.00;51995.78;6212337;23;20039;-74
2023/09/01 03:51:59;;;;;;;14.93;5.80;;;;;;;14.98;100.00;52343.75;6213862;23;20000;-74
2023/09/01 03:54:28;;;;;;;13.23;5.63;;;;;;;15.00;100.00;51996.66;6212901;23;20445;-73
2023/09/01 03:56:54;;;;;;;13.48;5.80;;;;;;;14.99;100.00;52345.06;6213496;23;20023;-74
2023/09/01 03:59:20;;;;;;;11.77;5.67;;;;;;;14.98;100.00;51995.34;6214231;23;20441;-73
2023/09/01 04:01:46;;;;;;;10.52;5.65;;;;;;;14.99;100.00;51298.63;6214179;23;20312;-73
2023/09/01 04:04:11;;;;;;;13.90;5.35;;;;;;;15.00;100.00;51997.09;6212066;23;20004;-72
2023/09/01 04:06:41;;;;;;;13.83;5.57;;;;;;;15.00;100.00;51299.47;6212858;23;20010;-73
2023/09/01 04:09:08;;;;;;;14.68;5.70;;;;;;;15.03;100.00;51301.66;6214117;23;20005;-73
2023/09/01 04:11:34;;;;;;;13.77;6.22;;;;;;;15.06;100.00;49909.28;6212827;23;20027;-72
2023/09/01 04:14:00;;;;;;;12.18;5.82;;;;;;;15.05;100.00;49211.13;6213645;23;20366;-73
2023/09/01 04:16:25;;;;;;;17.67;6.50;;;;;;;15.06;100.00;50257.97;6214303;23;20000;-72
2023/09/01 04:18:51;;;;;;;13.20;5.53;;;;;;;15.10;100.00;50261.38;6213779;23;20378;-72
2023/09/01 04:21:17;;;;;;;13.30;6.30;;;;;;;15.05;100.00;50954.63;6212444;23;20060;-72
2023/09/01 04:23:42;;;;;;;13.20;6.40;;;;;;;15.07;100.00;52700.63;6212733;23;20080;-72
2023/09/01 04:26:08;;;;;;;13.23;5.57;;;;;;;15.09;100.00;51656.16;6213694;23;20016;-73
2023/09/01 04:28:34;;;;;;;13.50;6.27;;;;;;;15.19;100.00;50269.03;6213117;23;20008;-73
2023/09/01 04:31:03;;;;;;;17.43;6.23;;;;;;;15.17;100.00;54105.78;6213466;23;20000;-73
2023/09/01 04:33:29;;;;;;;13.43;6.28;;;;;;;15.14;100.00;53754.41;6213092;23;20230;-73
2023/09/01 04:36:05;;;;;;;12.57;5.50;;;;;;;15.09;100.00;52004.56;6214221;23;20004;-74
2023/09/01 04:38:30;;;;;;;11.88;5.85;;;;;;;15.08;100.00;52352.59;6213133;23;20024;-73
2023/09/01 04:40:56;;;;;;;12.10;5.30;;;;;;;15.10;100.00;52354.38;6214174;23;20008;-73
2023/09/01 04:43:25;;;;;;;12.20;6.07;;;;;;;15.07;100.00;51654.41;6213056;23;20001;-73
2023/09/01 04:45:51;;;;;;;9.73;6.00;;;;;;;15.10;100.00;49215.31;6213074;23;20028;-73
2023/09/01 04:48:17;;;;;;;13.85;6.35;;;;;;;15.09;100.00;49214.47;6213826;23;20047;-73
2023/09/01 04:50:42;;;;;;;15.53;6.40;;;;;;;15.11;100.00;47124.78;6213696;23;20423;-73
2023/09/01 04:53:07;;;;;;;10.80;5.37;;;;;;;15.10;100.00;46427.09;6211453;23;20400;-73
2023/09/01 04:55:33;;;;;;;11.93;6.37;;;;;;;15.11;100.00;46427.91;6211620;23;20012;-73
2023/09/01 04:57:58;;;;;;;14.97;6.03;;;;;;;15.09;100.00;47472.03;6212871;23;20075;-73
2023/09/01 05:00:24;;;;;;;17.67;5.80;;;;;;;15.04;100.00;46422.38;6212481;23;20005;-73
2023/09/01 05:02:50;;;;;;;11.80;5.73;;;;;;;15.05;100.00;43985.31;6212041;23;20004;-73
2023/09/01 05:05:15;;;;;;;12.60;5.97;;;;;;;15.01;100.00;43982.31;6211070;23;20423;-74
2023/09/01 05:07:41;;;;;;;15.53;6.80;;;;;;;15.01;100.00;42938.41;6212396;23;20091;-74
2023/09/01 05:10:08;;;;;;;23.30;6.77;;;;;;;14.94;100.00;41889.41;6211095;23;20001;-74
2023/09/01 05:12:33;;;;;;;12.70;6.80;;;;;;;14.95;100.00;40150.56;6211977;23;20004;-74
2023/09/01 05:14:59;;;;;;;17.93;6.67;;;;;;;14.95;100.00;40498.34;6212966;23;20008;-74
2023/09/01 05:17:25;;;;;;;9.70;6.67;;;;;;;14.92;100.00;39801.13;6211785;23;20004;-74
2023/09/01 05:19:50;;;;;;;13.30;7.33;;;;;;;14.95;100.00;39107.44;6212954;23;20000;-74
2023/09/01 05:22:15;;;;;;;14.57;7.07;;;;;;;14.97;100.00;39456.78;6212608;23;20027;-74
2023/09/01 05:24:41;;;;;;;11.17;6.47;;;;;;;15.03;100.00;40503.88;6210924;23;20027;-74
2023/09/01 05:27:06;;;;;;;15.57;7.53;;;;;;;15.04;100.00;41200.31;6210922;23;20438;-74
2023/09/01 05:29:32;;;;;;;13.20;6.50;;;;;;;15.03;100.00;43287.56;6211090;23;20090;-75
2023/09/01 05:31:57;;;;;;;11.43;6.90;;;;;;;15.05;100.00;43289.06;6213027;23;20007;-75
2023/09/01 05:34:22;;;;;;;11.30;6.83;;;;;;;15.07;100.00;43986.81;6212752;23;20071;-74
2023/09/01 05:36:48;;;;;;;14.90;6.80;;;;;;;15.04;100.00;43636.78;6211142;23;20019;-74
2023/09/01 05:39:13;;;;;;;13.43;6.13;;;;;;;15.09;100.00;43292.00;6211880;23;20017;-74
2023/09/01 05:41:38;;;;;;;14.53;6.60;;;;;;;15.11;100.00;43293.47;6212567;23;20000;-74
2023/09/01 05:44:04;;;;;;;13.13;7.60;;;;;;;15.11;100.00;43641.63;6210661;23;20464;-74
2023/09/01 05:46:29;;;;;;;16.97;7.50;;;;;;;15.16;100.00;44342.16;6212182;23;20012;-75
2023/09/01 05:48:55;;;;;;;17.77;7.37;;;;;;;15.22;100.00;44694.59;6210713;23;20008;-74
2023/09/01 05:51:20;;;;;;;12.23;6.70;;;;;;;15.26;100.00;47137.16;6212685;23;20001;-75
2023/09/01 05:53:45;;;;;;;21.40;7.10;;;;;;;15.28;100.00;49579.09;6210436;23;20443;-75
2023/09/01 05:56:11;;;;;;;16.97;6.73;;;;;;;15.32;100.00;50629.00;6211573;23;20431;-74
2023/09/01 05:58:36;;;;;;;11.43;6.43;;;;;;;15.34;100.00;50979.66;6210415;23;20004;-74
2023/09/01 06:01:02;;;;;;;11.87;6.73;;;;;;;15.31;100.00;51675.41;6212378;23;20003;-75
2023/09/01 06:03:27;;;;;;;14.73;6.60;;;;;;;15.33;100.00;50281.44;6210624;23;20008;-76
2023/09/01 06:05:53;;;;;;;17.37;7.57;;;;;;;15.36;100.00;50283.56;6211070;23;20016;-75
2023/09/01 06:08:19;;;;;;;15.57;7.03;;;;;;;15.41;100.00;50636.72;6209956;23;20015;-75
2023/09/01 06:10:44;;;;;;;15.70;6.53;;;;;;;15.49;100.00;52389.41;6212918;23;20395;-75
2023/09/01 06:13:10;;;;;;;10.87;6.53;;;;;;;15.54;100.00;52044.22;6210827;23;20070;-74
2023/09/01 06:15:35;;;;;;;13.13;6.90;;;;;;;15.50;100.00;52739.00;6212197;23;20000;-74
2023/09/01 06:18:00;;;;;;;17.97;7.30;;;;;;;15.55;100.00;54141.03;6211958;23;20028;-74
2023/09/01 06:20:28;;;;;;;11.57;6.60;;;;;;;15.60;100.00;53795.81;6211863;23;20449;-74
2023/09/01 06:22:54;;;;;;;10.30;6.72;;;;;;;15.66;100.00;55199.47;6211017;23;20151;-74
2023/09/01 06:25:20;;;;;;;14.55;7.03;;;;;;;15.62;100.00;55545.22;6212614;23;20438;-75
2023/09/01 06:27:46;;;;;;;15.47;6.53;;;;;;;15.62;100.00;55195.25;6210944;23;20004;-74
2023/09/01 06:30:12;;;;;;;15.13;7.38;;;;;;;15.64;100.00;56246.19;6212290;23;20377;-74
2023/09/01 06:32:37;;;;;;;15.50;7.77;;;;;;;15.63;100.00;56245.22;6212810;23;20009;-74
2023/09/01 06:35:03;;;;;;;14.93;6.93;;;;;;;15.67;100.00;55199.91;6212335;23;20054;-74
2023/09/01 06:37:28;;;;;;;12.33;7.33;;;;;;;15.70;100.00;55552.25;6212729;23;20347;-74
2023/09/01 06:39:54;;;;;;;13.83;7.07;;;;;;;15.69;100.00;56950.19;6211825;23;20378;-74
2023/09/01 06:42:20;;;;;;;11.87;6.83;;;;;;;15.70;100.00;54853.22;6185603;23;20028;-75
2023/09/01 06:44:45;;;;;;;12.77;7.37;;;;;;;15.71;100.00;53456.88;6185753;23;20004;-74
2023/09/01 06:47:10;;;;;;;8.73;6.23;;;;;;;15.80;100.00;52416.44;6208996;23;20011;-74
2023/09/01 06:49:36;;;;;;;18.43;7.57;;;;;;;15.89;100.00;54521.25;6209647;23;20055;-74
2023/09/01 06:52:02;;;;;;;13.10;6.87;;;;;;;15.91;100.00;55572.41;6211063;23;20466;-74
2023/09/01 06:54:27;;;;;;;13.40;7.23;;;;;;;15.97;100.00;56626.84;6209058;23;20005;-74
2023/09/01 06:56:53;;;;;;;13.47;7.37;;;;;;;16.00;100.00;57679.28;6183388;23;20176;-74
2023/09/01 06:59:19;;;;;;;15.10;7.50;;;;;;;16.12;100.00;59791.34;6210356;23;20409;-74
2023/09/01 07:01:44;;;;;;;11.50;7.53;;;;;;;16.14;100.00;65049.38;6209266;23;20004;-74
2023/09/01 07:04:10;;;;;;;13.60;6.87;;;;;;;16.19;100.00;65756.25;6209499;23;20001;-74
2023/09/01 07:06:35;;;;;;;11.50;7.13;;;;;;;16.20;100.00;66458.88;6209390;23;20012;-73
2023/09/01 07:09:00;;;;;;;12.83;6.67;;;;;;;16.27;100.00;68221.25;6211649;23;20031;-74
2023/09/01 07:11:26;;;;;;;15.37;6.60;;;;;;;16.31;100.00;69279.56;6211521;23;20081;-74
2023/09/01 07:13:51;;;;;;;13.67;7.73;;;;;;;16.24;100.00;69270.84;6213068;23;20449;-74
2023/09/01 07:16:17;;;;;;;8.80;7.10;;;;;;;16.30;100.00;67171.81;6211507;23;20007;-74
2023/09/01 07:18:42;;;;;;;18.50;7.67;;;;;;;16.26;100.00;68922.69;6213039;23;20008;-74
2023/09/01 07:21:07;;;;;;;11.00;6.53;;;;;;;16.25;100.00;66114.22;6185313;23;20001;-74
2023/09/01 07:23:33;;;;;;;20.90;7.83;;;;;;;16.23;100.00;65059.25;6212529;23;20346;-74
2023/09/01 07:25:59;;;;;;;15.27;7.13;;;;;;;16.22;100.00;66110.88;6211360;23;20075;-75
2023/09/01 07:28:24;;;;;;;13.45;6.60;;;;;;;16.23;100.00;64357.94;6211066;23;20442;-75
2023/09/01 07:30:50;;;;;;;14.53;7.07;;;;;;;16.29;100.00;64715.66;6212724;23;20000;-75
2023/09/01 07:33:16;;;;;;;13.38;7.45;;;;;;;16.32;100.00;67174.06;6212309;23;20035;-75
2023/09/01 07:35:46;;;;;;;14.37;7.57;;;;;;;16.39;100.00;67182.56;6213181;23;19996;-75
2023/09/01 07:38:11;;;;;;;10.38;6.60;;;;;;;16.44;100.00;68240.75;6211813;23;20036;-74
2023/09/01 07:40:37;;;;;;;12.90;6.97;;;;;;;16.47;100.00;67542.06;6208659;23;20008;-75
2023/09/01 07:43:02;;;;;;;13.73;6.13;;;;;;;16.63;100.00;68965.59;6185488;23;20040;-74
2023/09/01 07:45:28;;;;;;;13.37;7.00;;;;;;;16.62;100.00;73533.34;6211811;23;20084;-75
2023/09/01 07:47:54;;;;;;;14.70;7.37;;;;;;;16.69;100.00;70729.38;6211418;23;20066;-75
2023/09/01 07:50:19;;;;;;;12.47;7.17;;;;;;;16.76;100.00;74957.78;6212413;23;20250;-75
2023/09/01 07:52:45;;;;;;;17.00;7.33;;;;;;;16.64;100.00;79165.78;6213045;23;20434;-75
2023/09/01 07:55:10;;;;;;;11.57;7.07;;;;;;;16.68;100.00;76354.59;6211959;23;20012;-75
2023/09/01 07:57:35;;;;;;;14.87;8.27;;;;;;;16.73;100.00;83053.88;6211888;23;20100;-75
2023/09/01 08:00:05;;;;;;;13.07;7.50;;;;;;;16.70;100.00;80231.09;6212334;23;19997;-75
2023/09/01 08:02:31;;;;;;;11.52;7.97;;;;;;;16.74;100.00;83408.56;6211560;23;20004;-74
2023/09/01 08:04:56;;;;;;;20.97;7.93;;;;;;;16.71;100.00;82346.09;6212053;23;20079;-75
2023/09/01 08:07:21;;;;;;;14.43;7.87;;;;;;;16.67;100.00;79522.59;6212247;23;20068;-75
2023/09/01 08:09:47;;;;;;;13.37;8.33;;;;;;;16.71;100.00;76711.03;6211649;23;20055;-75
2023/09/01 08:12:12;;;;;;;17.80;8.17;;;;;;;16.76;100.00;77421.56;6211080;23;20312;-74
2023/09/01 08:14:37;;;;;;;14.13;8.87;;;;;;;16.76;100.00;83410.66;6210451;23;20005;-75
2023/09/01 08:17:03;;;;;;;14.80;8.27;;;;;;;16.73;100.00;81292.22;6211643;23;20039;-75
2023/09/01 08:19:28;;;;;;;16.50;8.03;;;;;;;16.77;100.00;77774.31;6212392;23;20007;-75
2023/09/01 08:21:56;;;;;;;15.50;8.83;;;;;;;16.79;100.00;78129.72;6211856;23;20004;-75
2023/09/01 08:24:21;;;;;;;13.40;9.15;;;;;;;16.79;100.00;79185.66;6183958;23;20019;-75
2023/09/01 08:26:48;;;;;;;13.70;8.83;;;;;;;16.77;100.00;74606.59;6211926;23;20001;-75
2023/09/01 08:29:14;;;;;;;;;;;;;;;16.84;100.00;77079.84;6214139;23;20373;-75
2023/09/01 08:31:40;;;;;;;11.07;8.77;;;;;;;16.85;100.00;77785.41;6211756;23;19911;-74
2023/09/01 08:34:10;;;;;;;13.30;9.10;;;;;;;16.95;100.00;77797.78;6209904;23;20430;-74
2023/09/01 08:36:36;;;;;;;11.52;9.45;;;;;;;16.97;100.00;80619.22;6211270;23;20078;-72
2023/09/01 08:39:03;;;;;;;11.27;8.77;;;;;;;17.03;100.00;80979.84;6213141;23;20008;-73
2023/09/01 08:41:28;;;;;;;;;;;;;;;17.05;100.00;84509.63;6213146;23;20003;-72
2023/09/01 08:43:57;;;;;;;15.00;9.68;;;;;;;17.13;100.00;82404.06;6187586;23;20326;-74
2023/09/01 08:46:24;;;;;;;15.95;10.10;;;;;;;17.20;100.00;83825.72;6187674;23;20472;-73
2023/09/01 08:48:50;;;;;;;13.65;8.95;;;;;;;17.24;100.00;83830.63;6214050;23;20419;-73
2023/09/01 08:51:15;;;;;;;13.67;9.93;;;;;;;17.18;100.00;85940.72;6213767;23;20030;-72
2023/09/01 08:53:42;;;;;;;11.13;9.47;;;;;;;17.21;100.00;87710.09;6213331;23;20008;-72
2023/09/01 08:56:07;;;;;;;12.50;9.55;;;;;;;17.07;100.00;91223.38;6214093;23;20005;-73
2023/09/01 08:58:33;;;;;;;11.33;8.30;;;;;;;17.16;100.00;88056.72;6213126;23;20014;-72
2023/09/01 09:00:58;;;;;;;14.17;8.40;;;;;;;17.14;100.00;85934.97;6214202;23;20007;-72
2023/09/01 09:03:24;;;;;;;13.30;8.50;;;;;;;17.16;100.00;88056.72;6213368;23;20031;-73
2023/09/01 09:05:49;;;;;;;11.20;9.00;;;;;;;17.13;100.00;85579.81;6213750;23;20027;-72
2023/09/01 09:08:17;;;;;;;12.40;9.33;;;;;;;17.12;100.00;81345.34;6212683;23;20342;-73
2023/09/01 09:10:47;;;;;;;14.35;9.32;;;;;;;17.13;100.00;80288.28;6214176;23;20004;-74
2023/09/01 09:13:26;;;;;;;12.02;8.13;;;;;;;17.18;100.00;78885.00;6213067;23;20005;-73
2023/09/01 09:16:08;;;;;;;14.93;9.30;;;;;;;17.17;100.00;78531.22;6213997;23;20316;-73
2023/09/01 09:18:34;;;;;;;14.82;9.35;;;;;;;17.18;100.00;76770.91;6213460;23;20083;-72
2023/09/01 09:21:02;;;;;;;13.35;9.23;;;;;;;17.17;100.00;73953.22;6213789;23;20394;-72
2023/09/01 09:23:44;;;;;;;10.75;8.77;;;;;;;17.17;100.00;74304.59;6185990;23;20748;-72
2023/09/01 09:26:10;;;;;;;13.02;8.90;;;;;;;17.14;100.00;74301.47;6186918;23;20000;-73
2023/09/01 09:28:36;;;;;;;13.05;9.45;;;;;;;17.05;100.00;74994.28;6214089;23;20011;-72
2023/09/01 09:31:02;;;;;;;10.53;8.70;;;;;;;17.11;100.00;75353.91;6213330;23;20004;-72
2023/09/01 09:33:30;;;;;;;12.13;8.48;;;;;;;17.11;100.00;73945.75;6213198;23;20100;-73
2023/09/01 09:35:56;;;;;;;14.07;9.43;;;;;;;17.05;100.00;71123.22;6212872;23;20017;-73
2023/09/01 09:38:22;;;;;;;14.93;9.20;;;;;;;17.05;100.00;67256.56;6212856;23;20017;-72
2023/09/01 09:40:58;;;;;;;11.77;9.20;;;;;;;17.05;100.00;69013.66;6213292;23;19997;-72
2023/09/01 09:43:23;;;;;;;13.25;9.38;;;;;;;17.07;100.00;66907.50;6186210;23;20794;-72
2023/09/01 09:45:53;;;;;;;14.97;9.87;;;;;;;17.03;100.00;64795.72;6186135;23;20005;-72
2023/09/01 09:48:19;;;;;;;14.38;10.32;;;;;;;17.11;100.00;64102.72;6186052;23;20043;-74
2023/09/01 09:50:47;;;;;;;14.87;9.47;;;;;;;17.20;100.00;63761.28;6213526;23;20039;-74
2023/09/01 09:53:16;;;;;;;16.38;10.02;;;;;;;17.22;100.00;63412.31;6212795;23;20222;-74
2023/09/01 09:55:45;;;;;;;18.80;10.93;;;;;;;17.25;100.00;64468.47;6213374;23;20000;-74
2023/09/01 09:58:12;;;;;;;16.90;9.73;;;;;;;17.35;100.00;59213.75;6212733;23;20004;-74
2023/09/01 10:00:45;;;;;;;16.77;11.50;;;;;;;17.37;100.00;61672.22;6185827;23;20005;-74
2023/09/01 10:03:11;;;;;;;14.98;10.73;;;;;;;17.51;100.00;63794.56;6212681;23;20005;-73
2023/09/01 10:05:38;;;;;;;18.33;10.90;;;;;;;17.57;100.00;64854.63;6212727;23;20391;-74
2023/09/01 10:08:06;;;;;;;14.65;9.93;;;;;;;17.59;100.00;62398.00;6213219;23;20012;-74
2023/09/01 10:10:33;;;;;;;19.15;11.38;;;;;;;17.60;100.00;65209.34;6213547;23;20001;-73
2023/09/01 10:13:02;;;;;;;14.93;10.32;;;;;;;17.66;100.00;63458.75;6185337;23;20058;-73
2023/09/01 10:15:30;;;;;;;16.77;10.15;;;;;;;17.73;100.00;64872.63;6212939;23;20000;-74
2023/09/01 10:17:59;;;;;;;19.73;11.48;;;;;;;17.73;100.00;67334.03;6212053;23;20029;-73
2023/09/01 10:20:24;;;;;;;13.15;9.95;;;;;;;17.76;100.00;67688.63;6186649;23;20000;-73
2023/09/01 10:22:50;;;;;;;15.53;9.97;;;;;;;17.74;100.00;70501.53;6212391;23;20051;-74
2023/09/01 10:25:18;;;;;;;17.63;10.60;;;;;;;17.70;100.00;67681.81;6213222;23;20079;-74
2023/09/01 10:28:12;;;;;;;16.90;10.32;;;;;;;17.80;100.00;67341.38;6185422;23;20346;-73
2023/09/01 10:30:44;;;;;;;15.73;10.07;;;;;;;17.68;100.00;66273.38;6213092;23;20019;-74
2023/09/01 10:33:32;;;;;;;15.05;10.93;;;;;;;17.60;100.00;64506.47;6212431;23;20005;-74
2023/09/01 10:35:59;;;;;;;17.60;11.18;;;;;;;17.62;100.00;60996.41;6212960;23;20012;-74
2023/09/01 10:38:34;;;;;;;14.90;10.65;;;;;;;17.69;100.00;58545.75;6212016;23;20013;-74
2023/09/01 10:40:59;;;;;;;15.82;10.25;;;;;;;17.81;100.00;57855.63;6212750;23;20423;-74
2023/09/01 10:43:34;;;;;;;16.00;10.43;;;;;;;17.90;100.00;59619.78;6184881;23;20008;-74
2023/09/01 10:46:14;;;;;;;18.90;10.98;;;;;;;17.84;100.00;64532.47;6213069;23;20127;-74
2023/09/01 10:48:57;;;;;;;15.82;11.18;;;;;;;17.88;100.00;67351.00;6213014;23;20426;-74
2023/09/01 10:51:30;;;;;;;14.98;10.88;;;;;;;17.90;100.00;67353.25;6212171;23;20001;-73
2023/09/01 10:54:01;;;;;;;20.02;11.40;;;;;;;18.02;100.00;64904.22;6212662;23;20080;-74
2023/09/01 10:56:27;;;;;;;18.98;10.82;;;;;;;17.99;100.00;64197.13;6212337;23;20004;-75
2023/09/01 10:58:55;;;;;;;17.23;11.93;;;;;;;18.03;100.00;61038.03;6211643;23;20003;-73
2023/09/01 11:01:24;;;;;;;19.27;11.40;;;;;;;18.25;100.00;65632.47;6211810;23;20054;-73
2023/09/01 11:03:49;;;;;;;19.17;11.82;;;;;;;18.16;100.00;70199.59;6212916;23;20000;-73
2023/09/01 11:06:15;;;;;;;19.37;12.30;;;;;;;18.09;100.00;70895.22;6211877;23;20341;-72
2023/09/01 11:08:41;;;;;;;15.60;11.87;;;;;;;18.28;100.00;64580.75;6212950;23;20011;-73
2023/09/01 11:11:10;;;;;;;19.90;11.80;;;;;;;18.41;100.00;74459.28;6212465;23;20054;-74
2023/09/01 11:13:35;;;;;;;15.50;11.18;;;;;;;18.38;100.00;79043.75;6212437;23;20076;-73
2023/09/01 11:16:12;;;;;;;15.60;11.60;;;;;;;18.45;100.00;79053.66;6212655;23;20035;-73